createdAt,value
2018-09-04T00:01:22.158Z,16.70
2018-09-04T00:03:50.662Z,16.70
2018-09-04T00:06:23.137Z,16.70
2018-09-04T00:08:51.903Z,16.70
2018-09-04T00:11:23.986Z,16.70
2018-09-04T00:13:52.521Z,16.60
2018-09-04T00:16:21.109Z,16.50
2018-09-04T00:18:52.621Z,16.50
2018-09-04T00:21:21.152Z,16.50
2018-09-04T00:23:54.423Z,16.50
2018-09-04T00:26:22.917Z,16.40
2018-09-04T00:28:55.254Z,16.40
2018-09-04T00:31:27.074Z,16.40
2018-09-04T00:33:58.836Z,16.30
2018-09-04T00:36:27.375Z,16.30
2018-09-04T00:38:55.876Z,16.30
2018-09-04T00:41:28.424Z,16.30
2018-09-04T00:43:56.963Z,16.30
2018-09-04T00:46:29.292Z,16.20
2018-09-04T00:48:58.141Z,16.20
2018-09-04T00:51:30.148Z,16.10
2018-09-04T00:53:58.871Z,16.10
2018-09-04T00:56:31.019Z,16.00
2018-09-04T00:58:59.608Z,16.00
2018-09-04T01:01:28.166Z,16.00
2018-09-04T01:03:59.642Z,16.00
2018-09-04T01:06:28.548Z,16.00
2018-09-04T01:09:01.435Z,15.90
2018-09-04T01:11:30.014Z,15.90
2018-09-04T01:14:02.270Z,15.90
2018-09-04T01:16:30.803Z,15.80
2018-09-04T01:19:03.133Z,15.80
2018-09-04T01:21:31.627Z,15.80
2018-09-04T01:24:00.141Z,15.70
2018-09-04T01:26:31.787Z,15.70
2018-09-04T01:29:00.409Z,15.70
2018-09-04T01:31:36.228Z,15.60
2018-09-04T01:34:04.809Z,15.60
2018-09-04T01:36:37.179Z,15.60
2018-09-04T01:39:06.856Z,15.60
2018-09-04T01:41:38.965Z,15.50
2018-09-04T01:44:07.493Z,15.50
2018-09-04T01:46:35.991Z,15.40
2018-09-04T01:49:08.874Z,15.50
2018-09-04T01:51:37.468Z,15.40
2018-09-04T01:54:11.573Z,15.30
2018-09-04T01:56:40.121Z,15.30
2018-09-04T01:59:12.090Z,15.30
2018-09-04T02:01:40.662Z,15.30
2018-09-04T02:04:12.864Z,15.30
2018-09-04T02:06:41.393Z,15.30
2018-09-04T02:09:13.749Z,15.20
2018-09-04T02:11:42.264Z,15.20
2018-09-04T02:14:14.613Z,15.10
2018-09-04T02:16:43.144Z,15.10
2018-09-04T02:19:11.636Z,15.10
2018-09-04T02:21:43.288Z,15.10
2018-09-04T02:24:11.814Z,15.10
2018-09-04T02:26:40.310Z,15.10
2018-09-04T02:29:11.930Z,15.10
2018-09-04T02:31:44.452Z,15.10
2018-09-04T02:34:17.279Z,15.10
2018-09-04T02:36:45.841Z,15.00
2018-09-04T02:39:14.405Z,15.00
2018-09-04T02:41:45.911Z,15.00
2018-09-04T02:44:14.516Z,15.00
2018-09-04T02:46:43.033Z,15.00
2018-09-04T02:49:15.364Z,15.00
2018-09-04T02:51:43.864Z,15.00
2018-09-04T02:54:16.222Z,15.10
2018-09-04T02:56:46.487Z,15.00
2018-09-04T02:59:18.004Z,15.00
2018-09-04T03:01:46.619Z,15.00
2018-09-04T03:04:15.129Z,15.10
2018-09-04T03:06:47.589Z,15.20
2018-09-04T03:09:16.133Z,15.10
2018-09-04T03:11:48.428Z,15.10
2018-09-04T03:14:17.011Z,15.10
2018-09-04T03:16:49.287Z,15.10
2018-09-04T03:19:18.198Z,15.10
2018-09-04T03:21:50.325Z,15.10
2018-09-04T03:24:18.840Z,15.10
2018-09-04T03:26:51.114Z,15.20
2018-09-04T03:29:19.670Z,15.20
2018-09-04T03:31:55.529Z,15.20
2018-09-04T03:34:24.036Z,15.20
2018-09-04T03:36:56.426Z,15.20
2018-09-04T03:39:24.964Z,15.20
2018-09-04T03:41:57.294Z,15.10
2018-09-04T03:44:26.110Z,15.10
2018-09-04T03:46:58.239Z,15.10
2018-09-04T03:49:26.791Z,15.10
2018-09-04T03:51:59.097Z,15.10
2018-09-04T03:54:28.240Z,15.00
2018-09-04T03:56:59.922Z,15.00
2018-09-04T03:59:28.418Z,15.00
2018-09-04T04:01:57.051Z,15.00
2018-09-04T04:04:29.435Z,15.00
2018-09-04T04:06:57.952Z,15.00
2018-09-04T04:09:30.359Z,15.00
2018-09-04T04:11:58.946Z,15.00
2018-09-04T04:14:27.453Z,15.00
2018-09-04T04:16:59.033Z,15.00
2018-09-04T04:19:27.604Z,14.90
2018-09-04T04:21:59.870Z,14.90
2018-09-04T04:24:28.380Z,14.90
2018-09-04T04:26:56.964Z,14.90
2018-09-04T04:29:29.403Z,14.80
2018-09-04T04:32:01.148Z,14.80
2018-09-04T04:34:32.900Z,14.80
2018-09-04T04:37:01.448Z,14.80
2018-09-04T04:39:29.974Z,14.80
2018-09-04T04:42:02.473Z,14.80
2018-09-04T04:44:31.049Z,14.80
2018-09-04T04:47:03.361Z,14.80
2018-09-04T04:49:31.898Z,14.80
2018-09-04T04:52:00.473Z,14.80
2018-09-04T04:54:31.978Z,14.80
2018-09-04T04:57:01.162Z,14.80
2018-09-04T04:59:32.845Z,14.80
2018-09-04T05:02:01.340Z,14.70
2018-09-04T05:04:34.593Z,14.70
2018-09-04T05:07:03.193Z,14.70
2018-09-04T05:09:35.491Z,14.70
2018-09-04T05:12:04.104Z,14.80
2018-09-04T05:14:40.014Z,14.70
2018-09-04T05:17:08.569Z,14.80
2018-09-04T05:19:39.987Z,14.80
2018-09-04T05:22:08.578Z,14.80
2018-09-04T05:24:40.771Z,14.80
2018-09-04T05:27:09.396Z,14.90
2018-09-04T05:29:42.623Z,14.90
2018-09-04T05:32:24.856Z,15.00
2018-09-04T05:34:57.020Z,15.00
2018-09-04T05:37:25.555Z,15.00
2018-09-04T05:39:54.082Z,15.10
2018-09-04T05:42:35.591Z,15.20
2018-09-04T05:45:05.765Z,15.20
2018-09-04T05:47:39.189Z,15.30
2018-09-04T05:50:08.597Z,15.30
2018-09-04T05:52:40.097Z,15.40
2018-09-04T05:55:08.689Z,15.50
2018-09-04T05:57:37.224Z,15.60
2018-09-04T06:00:13.274Z,15.60
2018-09-04T06:02:41.853Z,15.70
2018-09-04T06:05:10.375Z,15.70
2018-09-04T06:07:41.875Z,15.80
2018-09-04T06:10:10.627Z,15.80
2018-09-04T06:12:43.679Z,15.80
2018-09-04T06:15:12.322Z,15.90
2018-09-04T06:17:45.388Z,15.90
2018-09-04T06:20:13.983Z,15.90
2018-09-04T06:22:42.576Z,15.90
2018-09-04T06:25:14.070Z,15.90
2018-09-04T06:27:42.632Z,16.00
2018-09-04T06:30:14.856Z,16.10
2018-09-04T06:32:47.566Z,16.30
2018-09-04T06:35:19.357Z,16.30
2018-09-04T06:37:47.914Z,16.40
2018-09-04T06:40:16.515Z,16.60
2018-09-04T06:42:47.999Z,16.70
2018-09-04T06:45:16.554Z,16.80
2018-09-04T06:47:50.646Z,16.90
2018-09-04T06:50:19.219Z,17.00
2018-09-04T06:52:51.561Z,17.20
2018-09-04T06:55:20.090Z,17.30
2018-09-04T06:57:52.481Z,17.50
2018-09-04T07:00:20.983Z,17.70
2018-09-04T07:02:49.487Z,17.90
2018-09-04T07:05:21.046Z,18.10
2018-09-04T07:07:49.607Z,18.40
2018-09-04T07:10:18.139Z,18.60
2018-09-04T07:12:50.616Z,18.80
2018-09-04T07:15:19.221Z,19.10
2018-09-04T07:17:51.478Z,19.20
2018-09-04T07:23:10.432Z,19.40
2018-09-04T07:25:38.992Z,19.70
2018-09-04T07:28:27.599Z,20.00
2018-09-04T07:30:56.170Z,20.30
2018-09-04T07:33:32.100Z,20.40
2018-09-04T07:36:00.675Z,20.40
2018-09-04T07:38:32.976Z,20.60
2018-09-04T07:41:01.534Z,20.70
2018-09-04T07:43:33.958Z,20.90
2018-09-04T07:46:02.443Z,20.80
2018-09-04T07:48:30.995Z,21.20
2018-09-04T07:51:03.369Z,21.50
2018-09-04T07:53:31.899Z,21.70
2018-09-04T07:56:00.488Z,22.00
2018-09-04T07:58:32.013Z,22.20
2018-09-04T08:01:00.675Z,22.30
2018-09-04T08:03:29.155Z,22.70
2018-09-04T08:06:01.483Z,22.80
2018-09-04T08:08:30.116Z,23.00
2018-09-04T08:11:02.329Z,23.10
2018-09-04T08:13:30.936Z,23.10
2018-09-04T08:15:59.543Z,23.10
2018-09-04T08:18:30.965Z,23.40
2018-09-04T08:20:59.619Z,23.80
2018-09-04T08:23:32.780Z,24.20
2018-09-04T08:26:01.413Z,24.40
2018-09-04T08:28:34.516Z,24.50
2018-09-04T08:31:03.079Z,24.60
2018-09-04T08:33:39.141Z,24.70
2018-09-04T08:36:07.735Z,24.50
2018-09-04T08:38:44.458Z,23.90
2018-09-04T08:41:13.940Z,24.60
2018-09-04T08:43:46.221Z,25.20
2018-09-04T08:46:14.818Z,24.80
2018-09-04T08:48:43.399Z,24.90
2018-09-04T08:51:15.707Z,25.50
2018-09-04T08:53:44.220Z,25.20
2018-09-04T08:56:16.559Z,25.40
2018-09-04T08:58:45.139Z,25.80
2018-09-04T09:01:17.479Z,25.80
2018-09-04T09:03:46.163Z,26.10
2018-09-04T09:06:14.668Z,26.10
2018-09-04T09:08:47.026Z,26.30
2018-09-04T09:11:15.630Z,25.80
2018-09-04T09:13:48.894Z,25.70
2018-09-04T09:16:17.421Z,26.20
2018-09-04T09:18:50.589Z,26.80
2018-09-04T09:21:19.126Z,27.30
2018-09-04T09:23:51.452Z,27.20
2018-09-04T09:26:20.056Z,27.30
2018-09-04T09:28:48.602Z,27.50
2018-09-04T09:31:20.094Z,28.00
2018-09-04T09:33:52.806Z,28.10
2018-09-04T09:36:25.449Z,27.60
2018-09-04T09:38:54.190Z,27.80
2018-09-04T09:41:26.298Z,28.30
2018-09-04T09:43:56.508Z,28.40
2018-09-04T09:46:28.236Z,28.30
2018-09-04T09:48:56.773Z,28.60
2018-09-04T09:51:29.055Z,28.70
2018-09-04T09:53:57.592Z,28.80
2018-09-04T09:56:30.907Z,28.90
2018-09-04T09:58:59.471Z,28.70
2018-09-04T10:01:34.347Z,28.60
2018-09-04T10:04:04.614Z,28.80
2018-09-04T10:06:36.299Z,29.10
2018-09-04T10:09:06.721Z,29.40
2018-09-04T10:11:39.722Z,29.30
2018-09-04T10:14:08.294Z,29.30
2018-09-04T10:16:40.641Z,29.80
2018-09-04T10:19:09.232Z,29.80
2018-09-04T10:21:41.582Z,29.50
2018-09-04T10:24:10.943Z,30.30
2018-09-04T10:26:43.379Z,30.70
2018-09-04T10:29:11.948Z,30.80
2018-09-04T10:31:40.464Z,31.10
2018-09-04T10:34:22.146Z,31.00
2018-09-04T10:36:58.693Z,31.10
2018-09-04T10:39:32.588Z,30.50
2018-09-04T10:42:04.081Z,30.50
2018-09-04T10:44:33.153Z,30.90
2018-09-04T10:47:06.765Z,31.00
2018-09-04T10:49:35.432Z,30.90
2018-09-04T10:52:08.567Z,31.40
2018-09-04T10:54:37.242Z,31.30
2018-09-04T10:57:09.443Z,31.70
2018-09-04T10:59:37.967Z,31.30
2018-09-04T11:02:06.572Z,31.60
2018-09-04T11:04:38.034Z,31.90
2018-09-04T11:07:06.712Z,30.80
2018-09-04T11:09:39.990Z,30.10
2018-09-04T11:12:08.696Z,30.70
2018-09-04T11:14:41.570Z,30.50
2018-09-04T11:17:10.276Z,29.60
2018-09-04T11:19:42.472Z,29.50
2018-09-04T11:22:11.014Z,30.50
2018-09-04T11:24:39.567Z,29.80
2018-09-04T11:27:11.037Z,29.00
2018-09-04T11:29:39.589Z,29.20
2018-09-04T11:32:08.187Z,28.90
2018-09-04T11:34:50.547Z,28.40
2018-09-04T11:37:19.134Z,28.10
2018-09-04T11:39:47.714Z,29.50
2018-09-04T11:42:19.209Z,29.90
2018-09-04T11:44:47.863Z,30.00
2018-09-04T11:47:19.982Z,30.40
2018-09-04T11:49:48.516Z,30.80
2018-09-04T11:52:17.125Z,30.80
2018-09-04T11:54:49.505Z,31.00
2018-09-04T11:57:18.132Z,31.40
2018-09-04T11:59:50.358Z,31.90
2018-09-04T12:02:22.511Z,31.80
2018-09-04T12:04:53.995Z,31.10
2018-09-04T12:07:22.579Z,30.60
2018-09-04T12:09:51.135Z,30.60
2018-09-04T12:12:28.046Z,30.70
2018-09-04T12:14:56.647Z,30.70
2018-09-04T12:17:25.198Z,31.60
2018-09-04T12:21:07.428Z,31.30
2018-09-04T12:23:35.880Z,30.20
2018-09-04T12:26:09.174Z,31.00
2018-09-04T12:28:37.770Z,31.30
2018-09-04T12:31:11.868Z,31.90
2018-09-04T12:33:40.361Z,32.20
2018-09-04T12:36:16.301Z,32.40
2018-09-04T12:38:44.860Z,31.70
2018-09-04T12:41:17.210Z,31.60
2018-09-04T12:43:45.770Z,32.10
2018-09-04T12:46:14.286Z,32.30
2018-09-04T12:48:53.084Z,32.40
2018-09-04T12:51:21.634Z,31.00
2018-09-04T12:53:54.869Z,30.60
2018-09-04T12:56:23.408Z,30.20
2018-09-04T12:58:55.724Z,29.80
2018-09-04T13:01:24.266Z,29.80
2018-09-04T13:03:56.552Z,30.30
2018-09-04T13:06:25.091Z,29.90
2018-09-04T13:08:53.680Z,30.60
2018-09-04T13:11:25.192Z,31.40
2018-09-04T13:13:53.745Z,31.40
2018-09-04T13:16:22.258Z,31.60
2018-09-04T13:18:54.658Z,31.90
2018-09-04T13:21:23.941Z,31.50
2018-09-04T13:23:56.434Z,30.90
2018-09-04T13:26:24.999Z,30.40
2018-09-04T13:28:53.630Z,29.40
2018-09-04T13:31:25.056Z,30.10
2018-09-04T13:33:53.584Z,30.60
2018-09-04T13:36:32.279Z,30.60
2018-09-04T13:39:00.819Z,30.10
2018-09-04T13:41:37.659Z,30.40
2018-09-04T13:44:06.210Z,30.50
2018-09-04T13:46:34.817Z,31.00
2018-09-04T13:49:06.355Z,30.90
2018-09-04T13:51:35.212Z,30.70
2018-09-04T13:54:07.223Z,30.80
2018-09-04T13:56:35.814Z,30.50
2018-09-04T13:59:08.938Z,30.40
2018-09-04T14:01:37.546Z,30.40
2018-09-04T14:04:10.776Z,30.40
2018-09-04T14:06:39.345Z,30.60
2018-09-04T14:09:11.581Z,30.60
2018-09-04T14:11:40.407Z,30.50
2018-09-04T14:14:12.525Z,30.40
2018-09-04T14:16:43.157Z,30.50
2018-09-04T14:19:13.445Z,29.40
2018-09-04T14:21:42.000Z,29.30
2018-09-04T14:24:18.198Z,29.20
2018-09-04T14:26:46.784Z,29.20
2018-09-04T14:29:53.167Z,29.10
2018-09-04T14:31:48.267Z,28.70
2018-09-04T14:34:20.553Z,28.90
2018-09-04T14:36:52.374Z,28.70
2018-09-04T14:39:24.100Z,28.10
2018-09-04T14:41:52.670Z,28.20
2018-09-04T14:44:21.230Z,28.30
2018-09-04T14:46:53.708Z,28.30
2018-09-04T14:49:22.224Z,28.00
2018-09-04T14:51:50.812Z,27.80
2018-09-04T14:54:22.259Z,27.70
2018-09-04T14:56:50.826Z,27.40
2018-09-04T14:59:19.375Z,27.20
2018-09-04T15:01:51.723Z,27.10
2018-09-04T15:04:20.302Z,27.00
2018-09-04T15:06:52.670Z,26.70
2018-09-04T15:09:21.237Z,26.70
2018-09-04T15:11:53.471Z,26.50
2018-09-04T15:14:22.046Z,26.60
2018-09-04T15:16:54.490Z,26.40
2018-09-04T15:19:23.557Z,26.40
2018-09-04T15:21:55.344Z,26.30
2018-09-04T15:24:24.073Z,26.20
2018-09-04T15:26:56.118Z,26.00
2018-09-04T15:29:24.732Z,25.80
2018-09-04T15:31:57.972Z,25.60
2018-09-04T15:34:26.529Z,25.60
2018-09-04T15:37:02.480Z,25.60
2018-09-04T15:39:31.764Z,25.50
2018-09-04T15:42:03.384Z,25.50
2018-09-04T15:44:34.009Z,25.40
2018-09-04T15:47:06.902Z,25.40
2018-09-04T15:49:40.803Z,25.40
2018-09-04T15:52:12.371Z,25.10
2018-09-04T15:54:40.994Z,25.10
2018-09-04T15:57:13.246Z,25.00
2018-09-04T15:59:41.822Z,24.90
2018-09-04T16:02:15.006Z,24.80
2018-09-04T16:04:43.540Z,24.70
2018-09-04T16:07:17.704Z,24.60
2018-09-04T16:09:46.941Z,24.50
2018-09-04T16:12:18.563Z,24.30
2018-09-04T16:14:47.098Z,24.30
2018-09-04T16:17:15.649Z,24.20
2018-09-04T16:19:47.113Z,24.00
2018-09-04T16:22:15.684Z,24.00
2018-09-04T16:24:44.272Z,24.00
2018-09-04T16:27:15.732Z,23.80
2018-09-04T16:29:44.391Z,23.70
2018-09-04T16:32:16.749Z,23.60
2018-09-04T16:34:45.430Z,23.50
2018-09-04T16:37:22.082Z,23.60
2018-09-04T16:39:50.670Z,23.50
2018-09-04T16:42:24.747Z,23.50
2018-09-04T16:44:53.361Z,23.40
2018-09-04T16:47:25.595Z,23.30
2018-09-04T16:49:55.005Z,23.10
2018-09-04T16:52:26.488Z,23.10
2018-09-04T16:54:55.121Z,23.00
2018-09-04T16:57:27.413Z,23.00
2018-09-04T16:59:55.962Z,22.80
2018-09-04T17:02:28.307Z,22.70
2018-09-04T17:04:56.930Z,22.70
2018-09-04T17:07:30.008Z,22.60
2018-09-04T17:09:58.533Z,22.60
2018-09-04T17:12:31.131Z,22.50
2018-09-04T17:15:00.008Z,22.40
2018-09-04T17:17:31.805Z,22.30
2018-09-04T17:20:00.361Z,22.20
2018-09-04T17:22:28.870Z,22.10
2018-09-04T17:25:00.429Z,22.00
2018-09-04T17:27:28.990Z,21.90
2018-09-04T17:29:57.569Z,21.70
2018-09-04T17:32:30.805Z,21.60
2018-09-04T17:34:59.990Z,21.50
2018-09-04T17:37:36.273Z,21.50
2018-09-04T17:40:05.005Z,21.40
2018-09-04T17:42:38.044Z,21.30
2018-09-04T17:45:06.680Z,21.20
2018-09-04T17:47:39.881Z,21.00
2018-09-04T17:50:08.480Z,20.80
2018-09-04T17:52:40.705Z,20.80
2018-09-04T17:55:09.361Z,20.70
2018-09-04T17:57:41.516Z,20.70
2018-09-04T18:00:10.159Z,20.60
2018-09-04T18:02:42.392Z,20.50
2018-09-04T18:05:10.988Z,20.40
2018-09-04T18:07:43.270Z,20.30
2018-09-04T18:10:19.252Z,20.20
2018-09-04T18:12:51.406Z,20.20
2018-09-04T18:15:19.963Z,20.10
2018-09-04T18:17:52.378Z,20.00
2018-09-04T18:20:20.915Z,19.90
2018-09-04T18:22:54.125Z,19.90
2018-09-04T18:25:22.652Z,19.80
2018-09-04T18:27:54.908Z,19.70
2018-09-04T18:30:23.589Z,19.60
2018-09-04T18:32:56.780Z,19.50
2018-09-04T18:35:25.570Z,19.50
2018-09-04T18:38:01.232Z,19.40
2018-09-04T18:40:29.847Z,19.30
2018-09-04T18:43:03.036Z,19.30
2018-09-04T18:45:52.136Z,19.20
2018-09-04T18:48:24.782Z,19.20
2018-09-04T18:50:53.343Z,19.10
2018-09-04T18:53:25.624Z,19.00
2018-09-04T18:55:54.518Z,19.00
2018-09-04T18:58:26.490Z,18.90
2018-09-04T19:00:55.408Z,19.00
2018-09-04T19:03:27.473Z,18.90
2018-09-04T19:05:56.034Z,18.80
2018-09-04T19:08:28.562Z,18.80
2018-09-04T19:10:57.068Z,18.80
2018-09-04T19:13:30.153Z,18.70
2018-09-04T19:15:58.754Z,18.70
2018-09-04T19:18:31.867Z,18.70
2018-09-04T19:21:00.490Z,18.60
2018-09-04T19:23:32.769Z,18.60
2018-09-04T19:26:01.478Z,18.60
2018-09-04T19:28:34.476Z,18.50
2018-09-04T19:31:03.356Z,18.50
2018-09-04T19:33:35.339Z,18.50
2018-09-04T19:36:04.121Z,18.40
2018-09-04T19:38:40.443Z,18.40
2018-09-04T19:41:08.983Z,18.30
2018-09-04T19:43:40.782Z,18.20
2018-09-04T19:46:09.575Z,18.10
2018-09-04T19:48:41.653Z,18.10
2018-09-04T19:51:10.257Z,18.10
2018-09-04T19:53:38.802Z,18.00
2018-09-04T19:56:12.147Z,18.00
2018-09-04T19:58:40.717Z,17.90
2018-09-04T20:01:13.981Z,17.90
2018-09-04T20:03:42.533Z,17.80
2018-09-04T20:06:14.667Z,17.80
2018-09-04T20:08:43.270Z,17.80
2018-09-04T20:11:11.813Z,17.70
2018-09-04T20:13:43.284Z,17.70
2018-09-04T20:16:11.884Z,17.60
2018-09-04T20:18:40.392Z,17.60
2018-09-04T20:21:12.836Z,17.50
2018-09-04T20:23:41.374Z,17.40
2018-09-04T20:26:09.932Z,17.40
2018-09-04T20:28:41.462Z,17.30
2018-09-04T20:31:10.360Z,17.20
2018-09-04T20:33:42.262Z,17.20
2018-09-04T20:36:10.882Z,17.10
2018-09-04T20:38:45.945Z,17.10
2018-09-04T20:41:15.096Z,17.00
2018-09-04T20:43:46.855Z,17.00
2018-09-04T20:46:15.546Z,16.90
2018-09-04T20:48:48.336Z,16.90
2018-09-04T20:51:16.991Z,16.80
2018-09-04T20:53:48.470Z,16.70
2018-09-04T20:56:18.122Z,16.60
2018-09-04T20:59:02.132Z,16.70
2018-09-04T21:01:42.294Z,16.60
2018-09-04T21:04:25.584Z,16.60
2018-09-04T21:06:54.452Z,16.50
2018-09-04T21:09:40.188Z,16.50
2018-09-04T21:12:08.981Z,16.40
2018-09-04T21:14:41.851Z,16.40
2018-09-04T21:17:10.411Z,16.30
2018-09-04T21:19:38.932Z,16.30
2018-09-04T21:22:10.531Z,16.20
2018-09-04T21:24:39.109Z,16.20
2018-09-04T21:27:07.642Z,16.10
2018-09-04T21:29:40.007Z,16.10
2018-09-04T21:32:08.634Z,16.10
2018-09-04T21:34:40.840Z,16.10
2018-09-04T21:37:09.381Z,16.00
2018-09-04T21:39:45.361Z,16.00
2018-09-04T21:42:13.864Z,15.90
2018-09-04T21:44:42.426Z,15.90
2018-09-04T21:47:14.828Z,15.90
2018-09-04T21:49:44.035Z,15.90
2018-09-04T21:52:15.804Z,15.80
2018-09-04T21:54:44.345Z,15.80
2018-09-04T21:57:16.691Z,15.80
2018-09-04T21:59:45.183Z,15.80
2018-09-04T22:02:13.688Z,15.80
2018-09-04T22:04:46.994Z,15.70
2018-09-04T22:07:15.507Z,15.60
2018-09-04T22:09:47.896Z,15.70
2018-09-04T22:12:16.443Z,15.70
2018-09-04T22:14:50.174Z,15.60
2018-09-04T22:17:18.780Z,15.60
2018-09-04T22:19:50.670Z,15.60
2018-09-04T22:22:19.190Z,15.60
2018-09-04T22:24:51.501Z,15.50
2018-09-04T22:27:20.072Z,15.40
2018-09-04T22:29:48.575Z,15.40
2018-09-04T22:32:21.277Z,15.30
2018-09-04T22:34:49.950Z,15.20
2018-09-04T22:37:21.996Z,15.20
2018-09-04T22:39:57.635Z,15.10
2018-09-04T22:42:29.985Z,15.10
2018-09-04T22:44:58.631Z,15.20
2018-09-04T22:47:27.129Z,15.30
2018-09-04T22:50:04.913Z,15.30
2018-09-04T22:52:33.509Z,15.30
2018-09-04T22:55:06.651Z,15.20
2018-09-04T22:57:35.165Z,15.20
2018-09-04T23:00:03.862Z,15.10
2018-09-04T23:02:36.177Z,15.10
2018-09-04T23:05:04.832Z,15.10
2018-09-04T23:07:37.124Z,15.00
2018-09-04T23:10:05.765Z,15.00
2018-09-04T23:12:37.964Z,15.00
2018-09-04T23:15:06.604Z,14.90
2018-09-04T23:17:38.852Z,14.80
2018-09-04T23:20:07.455Z,14.80
2018-09-04T23:22:40.616Z,14.80
2018-09-04T23:25:09.118Z,14.90
2018-09-04T23:27:37.662Z,14.90
2018-09-04T23:30:10.104Z,14.80
2018-09-04T23:32:39.777Z,14.80
2018-09-04T23:35:11.960Z,14.70
2018-09-04T23:37:40.450Z,14.70
2018-09-04T23:40:28.261Z,14.60
2018-09-04T23:42:56.814Z,14.60
2018-09-04T23:45:29.143Z,14.60
2018-09-04T23:47:57.674Z,14.60
2018-09-04T23:50:29.987Z,14.50
2018-09-04T23:52:58.480Z,14.50
2018-09-04T23:55:27.011Z,14.50
2018-09-04T23:57:58.615Z,14.50
